createdAt,value
2024-02-29T00:00:40.770Z,99193.06
2024-02-29T00:03:10.054Z,99195.06
2024-02-29T00:05:38.096Z,99203.38
2024-02-29T00:08:05.035Z,99199.81
2024-02-29T00:10:31.689Z,99167.81
2024-02-29T00:12:58.750Z,99193.13
2024-02-29T00:15:25.486Z,99150.19
2024-02-29T00:17:52.349Z,99165.06
2024-02-29T00:20:19.414Z,99162.28
2024-02-29T00:22:47.381Z,99199.81
2024-02-29T00:25:13.951Z,99184.47
2024-02-29T00:27:43.318Z,99186.78
2024-02-29T00:30:11.426Z,99148.91
2024-02-29T00:32:38.699Z,99163.91
2024-02-29T00:35:06.036Z,99137.16
2024-02-29T00:37:32.674Z,99160.66
2024-02-29T00:39:59.666Z,99154.47
2024-02-29T00:42:26.593Z,99138.47
2024-02-29T00:44:53.098Z,99155.59
2024-02-29T00:47:19.517Z,99113.50
2024-02-29T00:49:46.108Z,99175.16
2024-02-29T00:52:12.691Z,99171.91
2024-02-29T00:54:39.313Z,99164.41
2024-02-29T00:57:06.063Z,99126.56
2024-02-29T00:59:32.520Z,99168.00
2024-02-29T01:01:59.261Z,99164.72
2024-02-29T01:04:25.998Z,99156.72
2024-02-29T01:06:52.699Z,99123.13
2024-02-29T01:09:20.974Z,99142.69
2024-02-29T01:11:49.680Z,99141.53
2024-02-29T01:14:16.260Z,99104.69
2024-02-29T01:16:42.812Z,99141.53
2024-02-29T01:19:09.846Z,99123.75
2024-02-29T01:21:36.534Z,99145.75
2024-02-29T01:24:03.055Z,99090.44
2024-02-29T01:26:29.836Z,99091.09
2024-02-29T01:28:57.307Z,99107.75
2024-02-29T01:31:23.845Z,99059.78
2024-02-29T01:33:50.479Z,99124.38
2024-02-29T01:36:16.945Z,99133.53
2024-02-29T01:38:43.433Z,99119.66
2024-02-29T01:41:10.048Z,99105.81
2024-02-29T01:43:36.515Z,99100.41
2024-02-29T01:46:21.587Z,99119.22
2024-02-29T01:48:49.407Z,99085.91
2024-02-29T01:51:18.553Z,99118.22
2024-02-29T01:53:45.385Z,99093.22
2024-02-29T01:56:14.038Z,99114.63
2024-02-29T01:58:44.230Z,99098.31
2024-02-29T02:01:11.011Z,99092.09
2024-02-29T02:03:39.115Z,99099.47
2024-02-29T02:06:05.951Z,99102.88
2024-02-29T02:08:33.400Z,99074.47
2024-02-29T02:11:00.826Z,99067.25
2024-02-29T02:13:27.472Z,99091.94
2024-02-29T02:15:54.273Z,99052.78
2024-02-29T02:18:20.859Z,99056.66
2024-02-29T02:20:47.708Z,99073.78
2024-02-29T02:23:14.198Z,99100.22
2024-02-29T02:25:40.710Z,99088.00
2024-02-29T02:28:07.510Z,99040.97
2024-02-29T02:30:34.168Z,99072.47
2024-02-29T02:33:00.922Z,99053.72
2024-02-29T02:35:27.556Z,99075.25
2024-02-29T02:37:53.985Z,99066.94
2024-02-29T02:40:20.754Z,99040.81
2024-02-29T02:42:47.348Z,99076.91
2024-02-29T02:45:14.037Z,99078.19
2024-02-29T02:47:40.618Z,99079.97
2024-02-29T02:50:07.454Z,99070.03
2024-02-29T02:52:34.108Z,99063.16
2024-02-29T02:55:00.823Z,99061.69
2024-02-29T02:57:27.399Z,99013.25
2024-02-29T02:59:54.046Z,99055.50
2024-02-29T03:02:20.895Z,99041.97
2024-02-29T03:04:47.554Z,99046.50
2024-02-29T03:07:14.173Z,99042.63
2024-02-29T03:09:40.989Z,99046.19
2024-02-29T03:12:08.959Z,99052.06
2024-02-29T03:14:35.386Z,99027.78
2024-02-29T03:17:02.040Z,99019.47
2024-02-29T03:19:28.691Z,99044.56
2024-02-29T03:21:55.153Z,99027.75
2024-02-29T03:24:22.268Z,99034.59
2024-02-29T03:26:48.864Z,99030.03
2024-02-29T03:29:15.607Z,99002.41
2024-02-29T03:31:45.800Z,99024.94
2024-02-29T03:34:12.423Z,99036.84
2024-02-29T03:36:39.174Z,99044.50
2024-02-29T03:39:06.294Z,99034.69
2024-02-29T03:41:33.429Z,99006.50
2024-02-29T03:44:00.715Z,99035.75
2024-02-29T03:46:27.277Z,99037.69
2024-02-29T03:48:53.777Z,99027.84
2024-02-29T03:51:20.471Z,98998.38
2024-02-29T03:53:47.116Z,99027.88
2024-02-29T03:56:13.797Z,99025.75
2024-02-29T03:58:40.964Z,98993.78
2024-02-29T04:01:11.878Z,99040.44
2024-02-29T04:03:40.101Z,99008.28
2024-02-29T04:06:10.051Z,99010.19
2024-02-29T04:08:37.242Z,99032.03
2024-02-29T04:11:04.101Z,99024.72
2024-02-29T04:13:30.616Z,99018.41
2024-02-29T04:15:57.142Z,99022.66
2024-02-29T04:18:23.956Z,99019.72
2024-02-29T04:20:51.631Z,99020.00
2024-02-29T04:23:18.301Z,99014.81
2024-02-29T04:25:46.577Z,99032.41
2024-02-29T04:28:15.835Z,99024.91
2024-02-29T04:30:43.738Z,99018.69
2024-02-29T04:33:12.545Z,99005.31
2024-02-29T04:35:39.125Z,98998.13
2024-02-29T04:38:05.630Z,99001.56
2024-02-29T04:40:32.383Z,98984.41
2024-02-29T04:42:59.164Z,99013.78
2024-02-29T04:45:28.054Z,99019.00
2024-02-29T04:47:55.149Z,98988.53
2024-02-29T04:50:22.047Z,99012.66
2024-02-29T04:52:48.693Z,99009.59
2024-02-29T04:55:15.446Z,98992.28
2024-02-29T04:57:42.116Z,98999.94
2024-02-29T05:00:11.415Z,98961.63
2024-02-29T05:02:38.430Z,98985.63
2024-02-29T05:05:07.584Z,98960.34
2024-02-29T05:07:35.119Z,98991.19
2024-02-29T05:10:02.227Z,98998.16
2024-02-29T05:12:29.007Z,99018.22
2024-02-29T05:14:55.857Z,99003.72
2024-02-29T05:17:22.556Z,99002.53
2024-02-29T05:19:49.530Z,99018.34
2024-02-29T05:22:16.179Z,99006.78
2024-02-29T05:24:43.022Z,99008.25
2024-02-29T05:27:09.737Z,99004.66
2024-02-29T05:29:36.493Z,98973.50
2024-02-29T05:32:03.285Z,98981.47
2024-02-29T05:34:29.812Z,98995.06
2024-02-29T05:36:59.120Z,98984.63
2024-02-29T05:39:25.724Z,98949.56
2024-02-29T05:41:52.382Z,98955.78
2024-02-29T05:44:19.717Z,98974.66
2024-02-29T05:46:46.402Z,98968.63
2024-02-29T05:49:13.146Z,98934.75
2024-02-29T05:51:39.760Z,98944.91
2024-02-29T05:54:06.380Z,98971.13
2024-02-29T05:56:32.911Z,98943.78
2024-02-29T05:59:00.058Z,98944.41
2024-02-29T06:01:29.481Z,98955.47
2024-02-29T06:03:56.415Z,98950.94
2024-02-29T06:06:25.099Z,98951.25
2024-02-29T06:08:51.651Z,98964.63
2024-02-29T06:11:19.844Z,98935.13
2024-02-29T06:13:46.403Z,98915.09
2024-02-29T06:16:14.547Z,98954.22
2024-02-29T06:18:43.814Z,98900.13
2024-02-29T06:21:10.957Z,98914.28
2024-02-29T06:23:37.856Z,98937.91
2024-02-29T06:26:04.802Z,98948.50
2024-02-29T06:28:31.435Z,98945.88
2024-02-29T06:30:58.050Z,98942.63
2024-02-29T06:33:24.762Z,98894.25
2024-02-29T06:35:51.998Z,98911.03
2024-02-29T06:38:18.663Z,98936.78
2024-02-29T06:40:46.259Z,98926.97
2024-02-29T06:43:12.729Z,98914.44
2024-02-29T06:45:46.223Z,98915.22
2024-02-29T06:48:12.817Z,98913.09
2024-02-29T06:50:39.454Z,98946.53
2024-02-29T06:53:06.098Z,98899.63
2024-02-29T06:55:33.188Z,98932.38
2024-02-29T06:58:00.369Z,98922.72
2024-02-29T07:00:27.293Z,98913.00
2024-02-29T07:02:53.981Z,98914.28
2024-02-29T07:05:20.780Z,98922.25
2024-02-29T07:07:47.455Z,98888.56
2024-02-29T07:10:14.190Z,98895.41
2024-02-29T07:12:41.935Z,98889.03
2024-02-29T07:15:09.114Z,98922.59
2024-02-29T07:17:35.782Z,98928.44
2024-02-29T07:20:04.949Z,98907.63
2024-02-29T07:22:32.433Z,98912.50
2024-02-29T07:25:02.147Z,98889.69
2024-02-29T07:27:28.879Z,98905.78
2024-02-29T07:29:55.439Z,98876.47
2024-02-29T07:32:22.064Z,98903.00
2024-02-29T07:34:48.776Z,98903.63
2024-02-29T07:37:15.429Z,98878.06
2024-02-29T07:39:42.126Z,98868.47
2024-02-29T07:42:10.230Z,98862.63
2024-02-29T07:44:36.935Z,98921.44
2024-02-29T07:47:03.965Z,98917.69
2024-02-29T07:49:33.004Z,98862.94
2024-02-29T07:51:59.769Z,98901.34
2024-02-29T07:54:26.523Z,98894.81
2024-02-29T07:56:53.331Z,98901.63
2024-02-29T07:59:20.058Z,98898.25
2024-02-29T08:01:46.611Z,98902.03
2024-02-29T08:04:13.609Z,98899.09
2024-02-29T08:06:40.178Z,98881.22
2024-02-29T08:09:09.545Z,98882.28
2024-02-29T08:11:37.525Z,98899.53
2024-02-29T08:14:04.206Z,98893.91
2024-02-29T08:16:30.756Z,98889.03
2024-02-29T08:18:57.305Z,98895.47
2024-02-29T08:21:23.845Z,98877.97
2024-02-29T08:23:50.417Z,98842.66
2024-02-29T08:26:16.991Z,98871.22
2024-02-29T08:28:44.555Z,98835.28
2024-02-29T08:31:13.409Z,98868.03
2024-02-29T08:33:40.065Z,98871.19
2024-02-29T08:36:06.734Z,98869.41
2024-02-29T08:38:35.331Z,98810.00
2024-02-29T08:41:03.357Z,98824.59
2024-02-29T08:43:30.030Z,98852.56
2024-02-29T08:45:56.879Z,98827.50
2024-02-29T08:48:24.190Z,98828.47
2024-02-29T08:50:50.775Z,98857.84
2024-02-29T08:53:17.342Z,98830.06
2024-02-29T08:55:43.911Z,98816.16
2024-02-29T08:58:11.550Z,98836.69
2024-02-29T09:00:38.135Z,98808.81
2024-02-29T09:03:05.106Z,98811.59
2024-02-29T09:05:34.790Z,98817.13
2024-02-29T09:08:01.438Z,98834.72
2024-02-29T09:10:28.719Z,98831.50
2024-02-29T09:12:55.952Z,98839.16
2024-02-29T09:15:22.513Z,98834.69
2024-02-29T09:17:48.996Z,98812.13
2024-02-29T09:20:15.681Z,98801.78
2024-02-29T09:22:42.148Z,98812.13
2024-02-29T09:25:09.271Z,98803.94
2024-02-29T09:27:35.862Z,98770.13
2024-02-29T09:30:02.500Z,98788.81
2024-02-29T09:32:30.074Z,98809.28
2024-02-29T09:34:56.649Z,98771.78
2024-02-29T09:37:23.311Z,98776.19
2024-02-29T09:39:49.978Z,98753.84
2024-02-29T09:42:17.223Z,98761.56
2024-02-29T09:44:44.774Z,98758.69
2024-02-29T09:47:13.823Z,98777.84
2024-02-29T09:49:41.950Z,98772.63
2024-02-29T09:52:09.535Z,98761.13
2024-02-29T09:54:40.810Z,98758.25
2024-02-29T09:57:13.112Z,98763.72
2024-02-29T09:59:43.050Z,98766.19
2024-02-29T10:02:15.408Z,98742.13
2024-02-29T10:04:41.960Z,98746.78
2024-02-29T10:07:08.667Z,98749.59
2024-02-29T10:09:35.217Z,98696.94
2024-02-29T10:12:03.337Z,98722.59
2024-02-29T10:14:32.736Z,98719.81
2024-02-29T10:17:00.078Z,98725.19
2024-02-29T10:19:26.834Z,98716.63
2024-02-29T10:21:53.789Z,98677.22
2024-02-29T10:24:21.394Z,98699.19
2024-02-29T10:26:48.161Z,98705.69
2024-02-29T10:29:17.242Z,98685.97
2024-02-29T10:31:44.360Z,98706.41
2024-02-29T10:34:12.189Z,98668.72
2024-02-29T10:36:39.750Z,98697.31
2024-02-29T10:39:06.608Z,98676.25
2024-02-29T10:41:33.803Z,98692.88
2024-02-29T10:44:07.452Z,98655.66
2024-02-29T10:46:36.093Z,98672.88
2024-02-29T10:49:12.866Z,98680.63
2024-02-29T10:51:55.267Z,98678.19
2024-02-29T10:54:29.125Z,98668.50
2024-02-29T10:56:56.745Z,98636.19
2024-02-29T10:59:24.800Z,98649.03
2024-02-29T11:01:59.262Z,98610.53
2024-02-29T11:04:27.052Z,98640.91
2024-02-29T11:06:54.161Z,98615.88
2024-02-29T11:09:28.120Z,98628.88
2024-02-29T11:12:23.076Z,98624.06
2024-02-29T11:14:50.558Z,98577.25
2024-02-29T11:17:18.245Z,98568.50
2024-02-29T11:19:54.468Z,98579.19
2024-02-29T11:22:35.892Z,98550.94
2024-02-29T11:25:12.084Z,98574.97
2024-02-29T11:27:47.092Z,98580.59
2024-02-29T11:30:18.672Z,98549.84
2024-02-29T11:32:45.222Z,98577.09
2024-02-29T11:35:12.879Z,98539.25
2024-02-29T11:37:40.876Z,98524.25
2024-02-29T11:40:09.620Z,98528.13
2024-02-29T11:42:37.533Z,98517.03
2024-02-29T11:45:04.682Z,98520.94
2024-02-29T11:47:31.677Z,98527.03
2024-02-29T11:50:02.271Z,98536.19
2024-02-29T11:52:28.985Z,98481.47
2024-02-29T11:54:55.719Z,98492.31
2024-02-29T11:57:24.477Z,98523.00
2024-02-29T11:59:53.428Z,98517.28
2024-02-29T12:02:21.366Z,98508.47
2024-02-29T12:04:49.457Z,98500.31
2024-02-29T12:07:17.803Z,98481.94
2024-02-29T12:09:45.967Z,98488.91
2024-02-29T12:12:13.662Z,98483.53
2024-02-29T12:14:41.745Z,98474.41
2024-02-29T12:17:09.141Z,98476.03
2024-02-29T12:19:36.184Z,98447.31
2024-02-29T12:22:04.114Z,98428.75
2024-02-29T12:24:32.387Z,98436.44
2024-02-29T12:26:59.284Z,98457.16
2024-02-29T12:29:25.956Z,98448.28
2024-02-29T12:31:52.634Z,98426.81
2024-02-29T12:34:19.200Z,98447.88
2024-02-29T12:36:47.032Z,98417.94
2024-02-29T12:39:19.831Z,98431.59
2024-02-29T12:41:46.560Z,98430.31
2024-02-29T12:44:13.139Z,98430.59
2024-02-29T12:46:39.706Z,98390.88
2024-02-29T12:49:08.646Z,98418.44
2024-02-29T12:51:35.151Z,98389.16
2024-02-29T12:54:01.745Z,98401.69
2024-02-29T12:56:28.520Z,98377.28
2024-02-29T12:58:54.985Z,98390.94
2024-02-29T13:01:21.633Z,98386.69
2024-02-29T13:03:48.644Z,98386.69
2024-02-29T13:06:15.344Z,98383.94
2024-02-29T13:08:42.104Z,98380.91
2024-02-29T13:11:08.552Z,98347.78
2024-02-29T13:13:35.225Z,98352.97
2024-02-29T13:16:02.007Z,98376.59
2024-02-29T13:18:28.661Z,98354.09
2024-02-29T13:20:55.590Z,98358.53
2024-02-29T13:23:22.272Z,98341.13
2024-02-29T13:25:49.241Z,98342.91
2024-02-29T13:28:16.125Z,98336.69
2024-02-29T13:30:42.729Z,98323.22
2024-02-29T13:33:09.651Z,98319.91
2024-02-29T13:35:36.177Z,98313.63
2024-02-29T13:38:02.790Z,98303.59
2024-02-29T13:40:29.668Z,98322.16
2024-02-29T13:42:56.343Z,98300.38
2024-02-29T13:45:22.845Z,98294.84
2024-02-29T13:47:51.963Z,98281.47
2024-02-29T13:50:20.474Z,98277.94
2024-02-29T13:52:47.290Z,98296.56
2024-02-29T13:55:13.994Z,98295.84
2024-02-29T13:57:41.309Z,98269.00
2024-02-29T14:00:09.876Z,98272.09
2024-02-29T14:02:36.891Z,98251.75
2024-02-29T14:05:07.121Z,98269.44
2024-02-29T14:07:34.220Z,98273.22
2024-02-29T14:10:00.823Z,98214.53
2024-02-29T14:12:28.480Z,98257.63
2024-02-29T14:14:55.012Z,98221.78
2024-02-29T14:17:21.828Z,98253.59
2024-02-29T14:19:48.380Z,98231.72
2024-02-29T14:22:15.330Z,98198.56
2024-02-29T14:24:42.188Z,98203.91
2024-02-29T14:27:08.873Z,98221.56
2024-02-29T14:29:38.356Z,98200.03
2024-02-29T14:32:05.706Z,98204.38
2024-02-29T14:34:35.907Z,98210.03
2024-02-29T14:37:05.649Z,98226.03
2024-02-29T14:39:34.333Z,98210.78
2024-02-29T14:42:00.883Z,98189.41
2024-02-29T14:44:27.433Z,98177.53
2024-02-29T14:46:55.637Z,98202.63
2024-02-29T14:49:22.334Z,98176.66
2024-02-29T14:51:49.238Z,98178.50
2024-02-29T14:54:15.977Z,98168.06
2024-02-29T14:56:44.389Z,98161.28
2024-02-29T14:59:11.995Z,98180.09
2024-02-29T15:01:38.998Z,98173.38
2024-02-29T15:04:05.618Z,98173.16
2024-02-29T15:06:32.167Z,98176.78
2024-02-29T15:08:58.759Z,98183.56
2024-02-29T15:11:27.330Z,98179.97
2024-02-29T15:13:54.511Z,98179.25
2024-02-29T15:16:21.224Z,98148.19
2024-02-29T15:18:48.089Z,98145.41
2024-02-29T15:21:14.813Z,98167.97
2024-02-29T15:23:41.548Z,98166.28
2024-02-29T15:26:11.703Z,98178.78
2024-02-29T15:28:42.072Z,98171.75
2024-02-29T15:31:09.373Z,98172.06
2024-02-29T15:33:36.105Z,98167.88
2024-02-29T15:36:02.623Z,98158.22
2024-02-29T15:38:29.225Z,98155.75
2024-02-29T15:40:56.000Z,98147.00
2024-02-29T15:43:22.716Z,98137.88
2024-02-29T15:45:49.474Z,98151.75
2024-02-29T15:48:16.743Z,98154.59
2024-02-29T15:50:43.389Z,98147.06
2024-02-29T15:53:09.907Z,98139.34
2024-02-29T15:55:36.440Z,98131.84
2024-02-29T15:58:05.090Z,98121.78
2024-02-29T16:00:32.472Z,98130.72
2024-02-29T16:02:59.106Z,98131.13
2024-02-29T16:05:28.000Z,98131.50
2024-02-29T16:07:56.021Z,98133.53
2024-02-29T16:10:22.904Z,98061.63
2024-02-29T16:12:49.735Z,98123.22
2024-02-29T16:15:16.744Z,98121.50
2024-02-29T16:17:43.438Z,98108.13
2024-02-29T16:20:11.364Z,98128.88
2024-02-29T16:22:37.975Z,98120.00
2024-02-29T16:25:05.306Z,98087.28
2024-02-29T16:27:32.380Z,98096.09
2024-02-29T16:29:58.982Z,98091.19
2024-02-29T16:32:25.489Z,98117.25
2024-02-29T16:34:51.931Z,98109.25
2024-02-29T16:37:18.547Z,98082.38
2024-02-29T16:39:45.123Z,98111.72
2024-02-29T16:42:11.854Z,98106.13
2024-02-29T16:44:38.291Z,98067.38
2024-02-29T16:47:05.097Z,98101.75
2024-02-29T16:49:31.770Z,98086.34
2024-02-29T16:51:58.732Z,98108.38
2024-02-29T16:54:25.882Z,98086.41
2024-02-29T16:56:52.601Z,98102.50
2024-02-29T16:59:19.160Z,98041.41
2024-02-29T17:01:45.678Z,98059.09
2024-02-29T17:04:12.313Z,98069.09
2024-02-29T17:06:39.107Z,98102.78
2024-02-29T17:09:06.064Z,98099.38
2024-02-29T17:11:33.030Z,98074.53
2024-02-29T17:13:59.632Z,98095.84
2024-02-29T17:16:26.418Z,98094.88
2024-02-29T17:18:53.141Z,98102.66
2024-02-29T17:21:21.357Z,98082.56
2024-02-29T17:23:47.815Z,98095.31
2024-02-29T17:26:18.150Z,98064.47
2024-02-29T17:28:44.704Z,98099.91
2024-02-29T17:31:11.297Z,98077.22
2024-02-29T17:33:41.320Z,98080.06
2024-02-29T17:36:07.982Z,98088.91
2024-02-29T17:38:34.647Z,98097.72
2024-02-29T17:41:01.189Z,98093.63
2024-02-29T17:43:27.957Z,98091.88
2024-02-29T17:45:54.652Z,98092.94
2024-02-29T17:48:21.105Z,98090.19
2024-02-29T17:50:47.745Z,98081.34
2024-02-29T17:53:14.251Z,98033.63
2024-02-29T17:55:40.704Z,98063.44
2024-02-29T17:58:07.267Z,98070.09
2024-02-29T18:00:33.740Z,98058.41
2024-02-29T18:03:01.829Z,98059.56
2024-02-29T18:05:29.890Z,98028.38
2024-02-29T18:08:02.258Z,98056.34
2024-02-29T18:10:30.335Z,98052.91
2024-02-29T18:12:58.672Z,98054.25
2024-02-29T18:15:26.360Z,98041.19
2024-02-29T18:17:53.125Z,98039.50
2024-02-29T18:20:20.837Z,98026.16
2024-02-29T18:22:47.460Z,98027.56
2024-02-29T18:25:14.362Z,98033.50
2024-02-29T18:27:40.992Z,98004.50
2024-02-29T18:30:11.725Z,98024.34
2024-02-29T18:32:38.335Z,98038.66
2024-02-29T18:35:09.906Z,98033.72
2024-02-29T18:37:38.639Z,98040.13
2024-02-29T18:40:05.956Z,98012.16
2024-02-29T18:42:32.499Z,98007.66
2024-02-29T18:45:01.866Z,98042.41
2024-02-29T18:47:28.779Z,97982.44
2024-02-29T18:49:55.450Z,98028.06
2024-02-29T18:52:21.989Z,98015.78
2024-02-29T18:54:50.551Z,98016.56
2024-02-29T18:57:17.121Z,98027.88
2024-02-29T18:59:43.557Z,98009.53
2024-02-29T19:02:10.121Z,97990.97
2024-02-29T19:04:37.089Z,98019.59
2024-02-29T19:07:03.841Z,97982.09
2024-02-29T19:09:32.696Z,98015.88
2024-02-29T19:11:59.191Z,98009.84
2024-02-29T19:14:26.235Z,97957.28
2024-02-29T19:16:55.589Z,97980.22
2024-02-29T19:19:22.502Z,97985.38
2024-02-29T19:21:49.233Z,98005.53
2024-02-29T19:24:15.877Z,98007.50
2024-02-29T19:26:44.521Z,98007.13
2024-02-29T19:29:11.371Z,97966.94
2024-02-29T19:31:40.954Z,98007.41
2024-02-29T19:34:08.061Z,97984.81
2024-02-29T19:36:34.792Z,98001.91
2024-02-29T19:39:01.278Z,97967.59
2024-02-29T19:41:28.014Z,97947.50
2024-02-29T19:43:54.685Z,97975.84
2024-02-29T19:46:21.333Z,97969.69
2024-02-29T19:48:47.896Z,97938.06
2024-02-29T19:51:15.631Z,97948.81
2024-02-29T19:53:44.995Z,97986.84
2024-02-29T19:56:12.216Z,97943.72
2024-02-29T19:58:39.605Z,97950.38
2024-02-29T20:01:07.081Z,97996.25
2024-02-29T20:03:33.850Z,97987.84
2024-02-29T20:06:01.178Z,97976.81
2024-02-29T20:08:27.926Z,97997.97
2024-02-29T20:10:54.562Z,97970.28
2024-02-29T20:13:21.249Z,97996.19
2024-02-29T20:15:48.904Z,97989.78
2024-02-29T20:18:17.572Z,97978.78
2024-02-29T20:20:44.322Z,97952.47
2024-02-29T20:23:11.100Z,97949.31
2024-02-29T20:25:37.746Z,97953.53
2024-02-29T20:28:04.605Z,97924.81
2024-02-29T20:30:31.307Z,97969.94
2024-02-29T20:32:57.891Z,97970.53
2024-02-29T20:35:24.630Z,97941.16
2024-02-29T20:37:51.060Z,97961.69
2024-02-29T20:40:18.437Z,97945.25
2024-02-29T20:42:45.532Z,97938.84
2024-02-29T20:45:15.284Z,97979.28
2024-02-29T20:47:44.618Z,97950.97
2024-02-29T20:50:11.675Z,97981.69
2024-02-29T20:52:38.242Z,97983.13
2024-02-29T20:55:05.304Z,97966.56
2024-02-29T20:57:33.689Z,97997.88
2024-02-29T21:00:00.798Z,97975.78
2024-02-29T21:02:29.626Z,97950.09
2024-02-29T21:04:59.177Z,97990.91
2024-02-29T21:07:26.018Z,97978.69
2024-02-29T21:09:53.029Z,97951.97
2024-02-29T21:12:19.636Z,97948.47
2024-02-29T21:14:46.163Z,97943.09
2024-02-29T21:17:13.305Z,97980.09
2024-02-29T21:19:40.399Z,97925.69
2024-02-29T21:22:07.661Z,97958.03
2024-02-29T21:24:34.233Z,97970.72
2024-02-29T21:27:00.977Z,97982.59
2024-02-29T21:29:27.484Z,97965.72
2024-02-29T21:31:53.901Z,97933.75
2024-02-29T21:34:21.260Z,97945.22
2024-02-29T21:36:48.794Z,97980.03
2024-02-29T21:39:18.983Z,97984.88
2024-02-29T21:41:48.247Z,97971.22
2024-02-29T21:44:14.625Z,97957.94
2024-02-29T21:46:41.071Z,97940.66
2024-02-29T21:49:07.636Z,97981.31
2024-02-29T21:51:34.292Z,97931.41
2024-02-29T21:54:00.780Z,97968.22
2024-02-29T21:56:27.695Z,97962.41
2024-02-29T21:58:54.280Z,97948.72
2024-02-29T22:01:21.142Z,97966.16
2024-02-29T22:03:47.716Z,97963.63
2024-02-29T22:06:14.249Z,97925.81
2024-02-29T22:08:43.699Z,97891.84
2024-02-29T22:11:10.489Z,97924.63
2024-02-29T22:13:38.441Z,97942.13
2024-02-29T22:16:05.232Z,97952.78
2024-02-29T22:18:32.056Z,97924.63
2024-02-29T22:20:58.541Z,97919.63
2024-02-29T22:23:25.116Z,97952.03
2024-02-29T22:25:51.549Z,97898.75
2024-02-29T22:28:18.294Z,97937.97
2024-02-29T22:30:46.540Z,97941.56
2024-02-29T22:33:14.127Z,97925.09
2024-02-29T22:35:40.892Z,97924.28
2024-02-29T22:38:07.905Z,97927.31
2024-02-29T22:40:34.463Z,97943.81
2024-02-29T22:43:00.972Z,97908.59
2024-02-29T22:45:27.600Z,97944.03
2024-02-29T22:47:54.151Z,97907.19
2024-02-29T22:50:20.725Z,97919.88
2024-02-29T22:52:47.197Z,97931.53
2024-02-29T22:55:13.924Z,97878.06
2024-02-29T22:57:40.437Z,97928.72
2024-02-29T23:00:24.481Z,97885.28
2024-02-29T23:02:51.622Z,97904.59
2024-02-29T23:05:18.206Z,97916.47
2024-02-29T23:07:47.353Z,97920.47
2024-02-29T23:10:15.311Z,97922.31
2024-02-29T23:12:45.639Z,97919.47
2024-02-29T23:15:12.425Z,97874.03
2024-02-29T23:17:40.138Z,97867.97
2024-02-29T23:20:07.278Z,97857.13
2024-02-29T23:22:34.391Z,97859.53
2024-02-29T23:25:00.926Z,97886.09
2024-02-29T23:27:27.513Z,97873.22
2024-02-29T23:29:53.977Z,97877.44
2024-02-29T23:32:20.506Z,97869.41
2024-02-29T23:34:46.965Z,97884.28
2024-02-29T23:37:13.639Z,97870.22
2024-02-29T23:39:40.142Z,97866.78
2024-02-29T23:42:06.839Z,97867.19
2024-02-29T23:44:33.383Z,97886.91
2024-02-29T23:47:00.447Z,97886.69
2024-02-29T23:49:27.105Z,97898.56
2024-02-29T23:51:53.668Z,97904.81
2024-02-29T23:54:20.114Z,97876.63
2024-02-29T23:56:46.484Z,97913.44
2024-02-29T23:59:13.076Z,97886.88
